createdAt,value
2023-05-19T00:01:26.044Z,7.80
2023-05-19T00:03:57.752Z,11.27
2023-05-19T00:06:31.584Z,6.63
2023-05-19T00:09:05.736Z,7.90
2023-05-19T00:11:36.210Z,7.60
2023-05-19T00:14:06.822Z,6.50
2023-05-19T00:16:34.885Z,8.20
2023-05-19T00:19:04.679Z,9.97
2023-05-19T00:21:32.904Z,6.63
2023-05-19T00:23:59.954Z,7.23
2023-05-19T00:26:28.323Z,7.60
2023-05-19T00:29:01.629Z,8.43
2023-05-19T00:31:28.913Z,7.47
2023-05-19T00:33:55.976Z,6.90
2023-05-19T00:36:23.066Z,6.80
2023-05-19T00:38:51.282Z,8.67
2023-05-19T00:41:18.826Z,7.97
2023-05-19T00:43:46.090Z,7.83
2023-05-19T00:46:13.342Z,6.87
2023-05-19T00:48:40.533Z,7.13
2023-05-19T00:51:07.758Z,7.40
2023-05-19T00:53:35.614Z,9.00
2023-05-19T00:56:04.060Z,8.77
2023-05-19T00:58:33.246Z,9.40
2023-05-19T01:01:06.815Z,7.23
2023-05-19T01:03:36.253Z,7.13
2023-05-19T01:06:05.998Z,7.77
2023-05-19T01:08:37.351Z,8.57
2023-05-19T01:11:06.858Z,9.80
2023-05-19T01:13:36.397Z,9.33
2023-05-19T01:16:33.577Z,9.03
2023-05-19T01:19:38.837Z,7.33
2023-05-19T01:22:13.383Z,9.57
2023-05-19T01:25:13.257Z,9.17
2023-05-19T01:28:10.568Z,7.13
2023-05-19T01:30:45.319Z,7.77
2023-05-19T01:33:15.570Z,7.43
2023-05-19T01:35:44.571Z,6.90
2023-05-19T01:38:16.533Z,9.43
2023-05-19T01:40:45.826Z,7.83
2023-05-19T01:43:17.858Z,9.80
2023-05-19T01:45:47.012Z,7.90
2023-05-19T01:48:15.533Z,9.80
2023-05-19T01:50:44.189Z,7.67
2023-05-19T01:53:11.745Z,7.50
2023-05-19T01:55:52.364Z,9.17
2023-05-19T01:58:37.937Z,11.67
2023-05-19T02:01:42.778Z,6.93
2023-05-19T02:04:58.204Z,7.63
2023-05-19T02:07:48.740Z,7.27
2023-05-19T02:10:27.613Z,7.63
2023-05-19T02:13:01.037Z,9.77
2023-05-19T02:15:38.941Z,9.50
2023-05-19T02:18:11.486Z,9.67
2023-05-19T02:20:40.759Z,7.60
2023-05-19T02:23:08.306Z,7.80
2023-05-19T02:25:35.564Z,7.13
2023-05-19T02:28:02.709Z,7.97
2023-05-19T02:30:32.010Z,7.93
2023-05-19T02:33:00.792Z,8.53
2023-05-19T02:35:28.181Z,7.37
2023-05-19T02:37:55.278Z,7.70
2023-05-19T02:40:22.987Z,6.53
2023-05-19T02:42:50.637Z,7.30
2023-05-19T02:45:17.807Z,8.67
2023-05-19T02:47:45.721Z,7.30
2023-05-19T02:50:12.800Z,8.63
2023-05-19T02:52:40.393Z,5.90
2023-05-19T02:55:08.161Z,8.57
2023-05-19T02:57:38.672Z,5.93
2023-05-19T03:00:06.950Z,8.40
2023-05-19T03:02:34.324Z,7.93
2023-05-19T03:05:03.413Z,8.33
2023-05-19T03:07:31.215Z,9.07
2023-05-19T03:09:58.171Z,7.27
2023-05-19T03:12:25.306Z,8.23
2023-05-19T03:14:52.551Z,5.83
2023-05-19T03:17:19.614Z,9.27
2023-05-19T03:19:46.626Z,7.77
2023-05-19T03:22:13.654Z,7.37
2023-05-19T03:24:40.796Z,7.23
2023-05-19T03:27:08.264Z,7.90
2023-05-19T03:29:35.515Z,7.90
2023-05-19T03:32:03.094Z,7.33
2023-05-19T03:34:30.161Z,8.40
2023-05-19T03:36:58.334Z,7.77
2023-05-19T03:39:25.490Z,8.47
2023-05-19T03:41:52.736Z,7.63
2023-05-19T03:44:19.888Z,8.83
2023-05-19T03:46:46.925Z,8.67
2023-05-19T03:49:37.938Z,7.97
2023-05-19T03:52:45.601Z,8.27
2023-05-19T03:55:33.241Z,7.63
2023-05-19T03:58:00.304Z,8.43
2023-05-19T04:00:27.411Z,10.83
2023-05-19T04:02:54.931Z,8.47
2023-05-19T04:05:22.104Z,7.87
2023-05-19T04:07:49.218Z,7.57
2023-05-19T04:10:16.366Z,7.53
2023-05-19T04:12:43.594Z,7.60
2023-05-19T04:15:12.101Z,10.70
2023-05-19T04:17:39.812Z,10.10
2023-05-19T04:20:07.643Z,7.23
2023-05-19T04:22:34.754Z,7.07
2023-05-19T04:25:02.503Z,9.77
2023-05-19T04:27:32.035Z,10.63
2023-05-19T04:29:59.597Z,8.33
2023-05-19T04:32:26.948Z,8.90
2023-05-19T04:34:55.526Z,8.53
2023-05-19T04:37:26.718Z,8.77
2023-05-19T04:39:54.428Z,6.23
2023-05-19T04:42:26.212Z,8.63
2023-05-19T04:44:54.649Z,6.37
2023-05-19T04:47:28.174Z,8.57
2023-05-19T04:49:55.798Z,8.57
2023-05-19T04:52:23.749Z,7.80
2023-05-19T04:54:51.259Z,8.10
2023-05-19T04:57:18.467Z,10.20
2023-05-19T04:59:46.361Z,7.33
2023-05-19T05:02:13.685Z,9.07
2023-05-19T05:04:43.580Z,8.80
2023-05-19T05:07:11.354Z,6.67
2023-05-19T05:09:39.076Z,9.43
2023-05-19T05:12:08.283Z,6.23
2023-05-19T05:14:37.716Z,9.10
2023-05-19T05:17:05.352Z,10.63
2023-05-19T05:19:33.466Z,7.97
2023-05-19T05:22:01.091Z,7.50
2023-05-19T05:24:29.040Z,9.60
2023-05-19T05:26:59.672Z,7.87
2023-05-19T05:29:27.272Z,8.23
2023-05-19T05:31:54.690Z,8.30
2023-05-19T05:34:23.111Z,7.07
2023-05-19T05:36:50.344Z,10.67
2023-05-19T05:39:18.815Z,7.97
2023-05-19T05:41:46.496Z,6.77
2023-05-19T05:44:13.547Z,8.87
2023-05-19T05:46:44.164Z,7.90
2023-05-19T05:49:13.471Z,7.40
2023-05-19T05:51:54.289Z,6.73
2023-05-19T05:54:32.233Z,5.77
2023-05-19T05:56:59.835Z,6.70
2023-05-19T05:59:27.518Z,7.17
2023-05-19T06:01:54.679Z,5.80
2023-05-19T06:04:22.084Z,7.13
2023-05-19T06:06:49.203Z,7.27
2023-05-19T06:09:21.827Z,6.73
2023-05-19T06:11:49.061Z,7.37
2023-05-19T06:14:16.621Z,5.53
2023-05-19T06:17:16.472Z,6.13
2023-05-19T06:19:43.867Z,6.73
2023-05-19T06:22:11.054Z,6.43
2023-05-19T06:24:39.599Z,6.27
2023-05-19T06:27:09.421Z,8.00
2023-05-19T06:29:36.756Z,7.83
2023-05-19T06:32:06.796Z,6.80
2023-05-19T06:34:35.162Z,7.13
2023-05-19T06:37:02.619Z,7.43
2023-05-19T06:39:31.460Z,7.77
2023-05-19T06:41:58.567Z,6.37
2023-05-19T06:44:45.902Z,5.73
2023-05-19T06:47:14.896Z,8.57
2023-05-19T06:49:42.726Z,8.53
2023-05-19T06:52:10.874Z,6.70
2023-05-19T06:54:38.025Z,5.67
2023-05-19T06:57:05.760Z,7.83
2023-05-19T06:59:33.322Z,6.73
2023-05-19T07:02:02.536Z,7.17
2023-05-19T07:04:29.775Z,7.80
2023-05-19T07:06:57.181Z,9.20
2023-05-19T07:09:25.715Z,5.13
2023-05-19T07:11:53.061Z,6.33
2023-05-19T07:14:21.146Z,6.57
2023-05-19T07:16:48.395Z,6.10
2023-05-19T07:19:15.681Z,5.47
2023-05-19T07:21:45.785Z,5.60
2023-05-19T07:24:13.514Z,6.53
2023-05-19T07:26:41.541Z,8.43
2023-05-19T07:29:09.042Z,8.02
2023-05-19T07:31:36.470Z,10.35
2023-05-19T07:34:03.975Z,7.50
2023-05-19T07:36:31.412Z,6.00
2023-05-19T07:38:58.502Z,6.40
2023-05-19T07:41:26.250Z,4.60
2023-05-19T07:43:53.300Z,6.50
2023-05-19T07:46:21.968Z,5.78
2023-05-19T07:48:49.183Z,6.13
2023-05-19T07:51:17.400Z,4.32
2023-05-19T07:53:44.582Z,5.75
2023-05-19T07:56:11.832Z,6.32
2023-05-19T07:58:39.350Z,4.95
2023-05-19T08:01:06.905Z,5.47
2023-05-19T08:03:34.177Z,7.25
2023-05-19T08:06:01.421Z,6.45
2023-05-19T08:08:28.840Z,7.85
2023-05-19T08:10:55.948Z,5.57
2023-05-19T08:13:23.304Z,5.07
2023-05-19T08:15:50.457Z,4.22
2023-05-19T08:18:17.460Z,6.00
2023-05-19T08:20:46.447Z,5.60
2023-05-19T08:23:14.266Z,4.95
2023-05-19T08:25:41.954Z,4.43
2023-05-19T08:28:09.112Z,6.35
2023-05-19T08:30:36.581Z,6.40
2023-05-19T08:33:03.761Z,7.57
2023-05-19T08:35:31.545Z,7.95
2023-05-19T08:37:58.629Z,5.47
2023-05-19T08:40:27.414Z,6.32
2023-05-19T08:42:55.098Z,4.53
2023-05-19T08:45:22.331Z,5.07
2023-05-19T08:47:51.558Z,6.50
2023-05-19T08:50:30.884Z,6.63
2023-05-19T08:53:28.907Z,6.43
2023-05-19T08:56:21.060Z,4.50
2023-05-19T08:58:51.147Z,6.35
2023-05-19T09:01:20.581Z,5.65
2023-05-19T09:03:50.047Z,5.95
2023-05-19T09:06:17.739Z,5.63
2023-05-19T09:08:45.321Z,3.92
2023-05-19T09:11:13.316Z,6.10
2023-05-19T09:13:40.760Z,3.60
2023-05-19T09:16:08.946Z,5.28
2023-05-19T09:18:40.872Z,5.88
2023-05-19T09:21:10.353Z,4.03
2023-05-19T09:23:37.505Z,4.13
2023-05-19T09:26:08.554Z,3.00
2023-05-19T09:28:37.034Z,5.38
2023-05-19T09:31:06.272Z,3.17
2023-05-19T09:33:38.668Z,3.70
2023-05-19T09:36:08.579Z,3.72
2023-05-19T09:38:37.781Z,5.53
2023-05-19T09:41:07.480Z,4.72
2023-05-19T09:43:35.698Z,3.53
2023-05-19T09:46:14.487Z,3.05
2023-05-19T09:48:42.565Z,6.35
2023-05-19T09:51:12.662Z,3.35
2023-05-19T09:53:46.357Z,3.35
2023-05-19T09:56:16.353Z,2.20
2023-05-19T09:58:43.830Z,4.28
2023-05-19T10:01:11.696Z,5.28
2023-05-19T10:03:41.266Z,2.92
2023-05-19T10:06:09.381Z,3.88
2023-05-19T10:08:39.794Z,2.38
2023-05-19T10:11:08.661Z,4.07
2023-05-19T10:13:38.733Z,3.97
2023-05-19T10:16:07.063Z,4.18
2023-05-19T10:18:35.499Z,2.80
2023-05-19T10:21:04.779Z,5.65
2023-05-19T10:23:31.931Z,3.35
2023-05-19T10:26:05.055Z,5.72
2023-05-19T10:28:45.609Z,4.82
2023-05-19T10:31:21.917Z,5.88
2023-05-19T10:34:13.176Z,4.93
2023-05-19T10:36:58.206Z,2.28
2023-05-19T10:39:37.807Z,3.10
2023-05-19T10:42:27.364Z,5.13
2023-05-19T10:45:21.154Z,3.42
2023-05-19T10:47:51.623Z,4.88
2023-05-19T10:50:20.454Z,3.63
2023-05-19T10:52:57.419Z,3.28
2023-05-19T10:56:07.085Z,2.92
2023-05-19T10:58:50.689Z,5.28
2023-05-19T11:01:24.710Z,5.35
2023-05-19T11:03:55.105Z,3.08
2023-05-19T11:06:34.006Z,2.42
2023-05-19T11:09:19.462Z,2.97
2023-05-19T11:11:54.522Z,2.83
2023-05-19T11:14:27.380Z,6.18
2023-05-19T11:16:59.145Z,5.38
2023-05-19T11:19:37.366Z,3.65
2023-05-19T11:22:14.416Z,2.95
2023-05-19T11:24:53.173Z,5.78
2023-05-19T11:27:31.553Z,4.72
2023-05-19T11:30:06.659Z,3.13
2023-05-19T11:32:36.017Z,5.18
2023-05-19T11:35:03.779Z,4.10
2023-05-19T11:37:33.379Z,5.60
2023-05-19T11:40:07.297Z,2.90
2023-05-19T11:42:36.221Z,4.70
2023-05-19T11:45:06.199Z,3.75
2023-05-19T11:47:41.997Z,5.20
2023-05-19T11:50:20.589Z,3.25
2023-05-19T11:52:48.197Z,4.20
2023-05-19T11:55:22.486Z,4.05
2023-05-19T11:58:05.172Z,3.65
2023-05-19T12:00:42.131Z,5.25
2023-05-19T12:03:09.947Z,3.50
2023-05-19T12:05:43.924Z,5.38
2023-05-19T12:08:12.765Z,3.10
2023-05-19T12:10:40.988Z,4.55
2023-05-19T12:13:09.987Z,4.00
2023-05-19T12:15:37.732Z,3.90
2023-05-19T12:18:05.803Z,3.95
2023-05-19T12:20:35.815Z,3.08
2023-05-19T12:23:04.510Z,4.65
2023-05-19T12:25:32.568Z,5.47
2023-05-19T12:28:05.129Z,2.67
2023-05-19T12:30:34.431Z,2.80
2023-05-19T12:33:03.579Z,2.90
2023-05-19T12:35:36.196Z,3.88
2023-05-19T12:38:08.372Z,3.70
2023-05-19T12:40:37.756Z,5.13
2023-05-19T12:43:06.923Z,3.28
2023-05-19T12:45:38.810Z,4.00
2023-05-19T12:48:12.057Z,4.30
2023-05-19T12:50:39.457Z,3.60
2023-05-19T12:53:11.424Z,4.50
2023-05-19T12:55:45.216Z,3.90
2023-05-19T12:58:13.563Z,3.38
2023-05-19T13:00:47.840Z,3.78
2023-05-19T13:03:20.637Z,4.05
2023-05-19T13:05:50.508Z,6.95
2023-05-19T13:08:21.833Z,2.80
2023-05-19T13:10:49.748Z,3.78
2023-05-19T13:13:18.031Z,3.45
2023-05-19T13:15:49.225Z,3.45
2023-05-19T13:18:17.546Z,5.10
2023-05-19T13:20:47.024Z,3.35
2023-05-19T13:23:15.086Z,3.63
2023-05-19T13:25:43.223Z,3.58
2023-05-19T13:28:11.049Z,4.25
2023-05-19T13:30:41.878Z,3.08
2023-05-19T13:33:09.327Z,4.40
2023-05-19T13:35:37.372Z,5.38
2023-05-19T13:38:10.507Z,3.17
2023-05-19T13:40:39.877Z,5.47
2023-05-19T13:43:07.899Z,3.35
2023-05-19T13:45:35.205Z,3.53
2023-05-19T13:48:02.776Z,4.78
2023-05-19T13:50:30.685Z,6.75
2023-05-19T13:52:57.883Z,4.57
2023-05-19T13:55:27.474Z,4.53
2023-05-19T13:57:54.862Z,2.80
2023-05-19T14:00:22.387Z,4.93
2023-05-19T14:02:49.860Z,3.25
2023-05-19T14:05:17.236Z,3.75
2023-05-19T14:07:44.701Z,3.47
2023-05-19T14:10:12.085Z,4.47
2023-05-19T14:12:49.452Z,3.47
2023-05-19T14:15:27.546Z,3.40
2023-05-19T14:17:54.654Z,3.38
2023-05-19T14:20:22.144Z,4.13
2023-05-19T14:22:49.252Z,3.83
2023-05-19T14:25:16.546Z,4.35
2023-05-19T14:27:43.758Z,3.78
2023-05-19T14:30:11.391Z,3.10
2023-05-19T14:32:38.642Z,5.97
2023-05-19T14:35:06.518Z,4.80
2023-05-19T14:37:33.840Z,4.18
2023-05-19T14:40:01.131Z,3.88
2023-05-19T14:42:28.333Z,4.63
2023-05-19T14:44:55.969Z,4.63
2023-05-19T14:47:23.087Z,3.45
2023-05-19T14:49:50.186Z,4.78
2023-05-19T14:52:18.626Z,4.50
2023-05-19T14:54:45.757Z,4.80
2023-05-19T14:57:12.831Z,4.80
2023-05-19T14:59:40.145Z,5.13
2023-05-19T15:02:07.644Z,5.82
2023-05-19T15:04:34.730Z,4.68
2023-05-19T15:09:31.825Z,3.28
2023-05-19T15:12:01.160Z,3.92
2023-05-19T15:14:30.400Z,5.00
2023-05-19T15:16:58.390Z,3.65
2023-05-19T15:19:26.069Z,3.67
2023-05-19T15:21:53.419Z,2.67
2023-05-19T15:24:20.626Z,3.67
2023-05-19T15:26:47.726Z,5.57
2023-05-19T15:29:14.964Z,5.75
2023-05-19T15:31:42.280Z,3.92
2023-05-19T15:34:10.839Z,6.43
2023-05-19T15:36:38.250Z,2.80
2023-05-19T15:39:06.586Z,5.53
2023-05-19T15:41:34.139Z,6.28
2023-05-19T15:44:02.445Z,6.72
2023-05-19T15:46:30.532Z,5.45
2023-05-19T15:48:57.689Z,3.47
2023-05-19T15:51:25.513Z,2.88
2023-05-19T15:53:53.946Z,3.63
2023-05-19T15:56:21.680Z,3.88
2023-05-19T15:58:48.823Z,3.50
2023-05-19T16:01:17.803Z,5.80
2023-05-19T16:03:46.004Z,3.90
2023-05-19T16:06:13.832Z,3.28
2023-05-19T16:08:41.302Z,11.23
2023-05-19T16:11:08.563Z,5.63
2023-05-19T16:13:36.197Z,3.90
2023-05-19T16:16:03.823Z,3.33
2023-05-19T16:18:33.347Z,2.15
2023-05-19T16:21:00.467Z,3.78
2023-05-19T16:23:27.737Z,4.18
2023-05-19T16:25:55.079Z,2.78
2023-05-19T16:28:24.785Z,2.88
2023-05-19T16:30:52.319Z,3.25
2023-05-19T16:33:19.571Z,3.97
2023-05-19T16:36:01.042Z,4.28
2023-05-19T16:38:28.215Z,3.38
2023-05-19T16:40:55.344Z,4.45
2023-05-19T16:43:22.460Z,5.60
2023-05-19T16:45:49.630Z,2.95
2023-05-19T16:48:16.953Z,3.65
2023-05-19T16:50:44.032Z,3.05
2023-05-19T16:53:11.197Z,5.05
2023-05-19T16:55:38.216Z,2.85
2023-05-19T16:58:05.402Z,3.17
2023-05-19T17:00:32.724Z,4.72
2023-05-19T17:03:00.252Z,3.05
2023-05-19T17:05:27.866Z,4.15
2023-05-19T17:07:55.045Z,3.00
2023-05-19T17:10:22.073Z,3.28
2023-05-19T17:12:49.102Z,4.88
2023-05-19T17:15:16.263Z,3.53
2023-05-19T17:17:43.530Z,3.58
2023-05-19T17:20:11.650Z,3.72
2023-05-19T17:22:38.725Z,3.10
2023-05-19T17:25:07.051Z,3.30
2023-05-19T17:27:34.444Z,4.15
2023-05-19T17:30:01.576Z,3.53
2023-05-19T17:32:30.269Z,4.13
2023-05-19T17:34:58.644Z,3.00
2023-05-19T17:37:26.167Z,4.43
2023-05-19T17:39:53.299Z,3.47
2023-05-19T17:42:20.952Z,2.70
2023-05-19T17:44:48.236Z,3.55
2023-05-19T17:47:15.550Z,2.47
2023-05-19T17:49:43.106Z,6.03
2023-05-19T17:52:11.095Z,2.83
2023-05-19T17:54:38.698Z,4.15
2023-05-19T17:57:12.675Z,2.72
2023-05-19T17:59:40.131Z,4.38
2023-05-19T18:02:08.278Z,4.13
2023-05-19T18:04:35.969Z,4.20
2023-05-19T18:07:04.870Z,3.40
2023-05-19T18:09:36.709Z,4.65
2023-05-19T18:12:06.203Z,4.13
2023-05-19T18:14:33.304Z,2.92
2023-05-19T18:17:00.775Z,3.53
2023-05-19T18:19:28.118Z,3.78
2023-05-19T18:21:55.206Z,2.95
2023-05-19T18:24:22.506Z,2.35
2023-05-19T18:26:49.588Z,3.67
2023-05-19T18:29:16.618Z,3.85
2023-05-19T18:31:43.822Z,5.13
2023-05-19T18:34:10.982Z,3.88
2023-05-19T18:36:38.263Z,4.43
2023-05-19T18:39:05.683Z,4.80
2023-05-19T18:41:32.869Z,4.65
2023-05-19T18:44:00.128Z,3.92
2023-05-19T18:46:27.304Z,1.98
2023-05-19T18:48:54.307Z,2.67
2023-05-19T18:51:21.798Z,4.00
2023-05-19T18:53:51.133Z,4.03
2023-05-19T18:56:26.267Z,2.00
2023-05-19T18:58:54.967Z,4.88
2023-05-19T19:01:22.144Z,3.88
2023-05-19T19:03:49.704Z,3.97
2023-05-19T19:06:17.740Z,4.45
2023-05-19T19:08:44.965Z,2.83
2023-05-19T19:11:11.937Z,4.47
2023-05-19T19:13:39.938Z,3.67
2023-05-19T19:16:07.398Z,3.38
2023-05-19T19:18:36.411Z,3.78
2023-05-19T19:21:05.778Z,2.17
2023-05-19T19:23:33.720Z,2.13
2023-05-19T19:26:02.011Z,3.38
2023-05-19T19:28:29.269Z,4.25
2023-05-19T19:30:56.299Z,4.28
2023-05-19T19:33:24.635Z,3.17
2023-05-19T19:35:51.731Z,2.67
2023-05-19T19:38:18.858Z,3.17
2023-05-19T19:40:46.039Z,2.95
2023-05-19T19:43:13.228Z,2.85
2023-05-19T19:45:41.655Z,3.78
2023-05-19T19:48:08.856Z,4.25
2023-05-19T19:50:36.473Z,4.38
2023-05-19T19:53:04.053Z,3.72
2023-05-19T19:55:31.654Z,3.40
2023-05-19T19:57:58.787Z,2.85
2023-05-19T20:00:25.914Z,4.85
2023-05-19T20:03:05.020Z,3.13
2023-05-19T20:05:32.907Z,3.88
2023-05-19T20:07:59.988Z,3.97
2023-05-19T20:10:27.293Z,3.53
2023-05-19T20:12:54.497Z,3.63
2023-05-19T20:15:21.714Z,3.20
2023-05-19T20:17:48.868Z,3.45
2023-05-19T20:20:16.310Z,3.50
2023-05-19T20:22:46.646Z,3.13
2023-05-19T20:25:13.708Z,5.72
2023-05-19T20:27:40.978Z,4.43
2023-05-19T20:30:10.065Z,3.40
2023-05-19T20:32:38.586Z,3.97
2023-05-19T20:35:07.037Z,3.10
2023-05-19T20:37:34.295Z,4.82
2023-05-19T20:40:01.341Z,2.45
2023-05-19T20:42:28.429Z,3.67
2023-05-19T20:44:55.790Z,2.75
2023-05-19T20:47:23.030Z,3.00
2023-05-19T20:49:50.162Z,7.28
2023-05-19T20:52:17.609Z,3.85
2023-05-19T20:54:47.980Z,2.45
2023-05-19T20:57:15.242Z,3.13
2023-05-19T20:59:42.458Z,6.65
2023-05-19T21:02:11.910Z,3.45
2023-05-19T21:04:39.421Z,3.27
2023-05-19T21:07:06.646Z,2.78
2023-05-19T21:09:33.787Z,3.60
2023-05-19T21:12:01.085Z,4.15
2023-05-19T21:14:28.227Z,3.00
2023-05-19T21:16:56.562Z,4.63
2023-05-19T21:19:23.890Z,4.07
2023-05-19T21:21:50.969Z,3.60
2023-05-19T21:24:18.141Z,4.32
2023-05-19T21:26:45.689Z,4.55
2023-05-19T21:29:12.803Z,4.30
2023-05-19T21:31:41.144Z,4.13
2023-05-19T21:34:08.365Z,2.83
2023-05-19T21:36:36.015Z,4.78
2023-05-19T21:39:04.491Z,2.90
2023-05-19T21:41:32.506Z,4.32
2023-05-19T21:43:59.581Z,4.15
2023-05-19T21:46:28.059Z,4.22
2023-05-19T21:48:55.199Z,3.88
2023-05-19T21:51:22.500Z,4.63
2023-05-19T21:53:49.630Z,3.47
2023-05-19T21:56:17.021Z,5.32
2023-05-19T21:58:44.173Z,3.47
2023-05-19T22:01:11.301Z,3.67
2023-05-19T22:03:38.600Z,3.72
2023-05-19T22:06:08.345Z,3.97
2023-05-19T22:08:35.994Z,4.47
2023-05-19T22:11:03.218Z,3.90
2023-05-19T22:13:30.672Z,2.97
2023-05-19T22:15:58.287Z,2.87
2023-05-19T22:18:25.389Z,2.88
2023-05-19T22:20:52.425Z,3.87
2023-05-19T22:23:19.529Z,2.60
2023-05-19T22:25:46.942Z,2.70
2023-05-19T22:28:14.329Z,4.30
2023-05-19T22:30:42.323Z,3.43
2023-05-19T22:33:11.501Z,4.27
2023-05-19T22:35:38.682Z,3.37
2023-05-19T22:38:06.514Z,3.30
2023-05-19T22:40:35.716Z,4.77
2023-05-19T22:43:03.004Z,3.10
2023-05-19T22:45:30.203Z,2.83
2023-05-19T22:47:57.351Z,4.83
2023-05-19T22:50:24.349Z,2.97
2023-05-19T22:52:51.675Z,3.90
2023-05-19T22:55:19.026Z,3.27
2023-05-19T22:57:46.227Z,3.37
2023-05-19T23:00:18.830Z,2.60
2023-05-19T23:02:45.956Z,3.67
2023-05-19T23:05:13.249Z,4.80
2023-05-19T23:07:40.837Z,2.20
2023-05-19T23:10:08.591Z,2.67
2023-05-19T23:12:35.732Z,3.70
2023-05-19T23:15:03.921Z,3.63
2023-05-19T23:17:31.280Z,2.60
2023-05-19T23:19:58.588Z,4.23
2023-05-19T23:22:25.817Z,3.07
2023-05-19T23:24:52.944Z,2.70
2023-05-19T23:27:20.259Z,3.50
2023-05-19T23:29:49.093Z,4.27
2023-05-19T23:32:17.152Z,3.67
2023-05-19T23:34:44.247Z,3.97
2023-05-19T23:37:11.863Z,3.27
2023-05-19T23:39:38.926Z,4.33
2023-05-19T23:42:06.472Z,3.77
2023-05-19T23:44:33.502Z,3.23
2023-05-19T23:47:00.834Z,3.87
2023-05-19T23:49:28.051Z,5.00
2023-05-19T23:51:55.339Z,5.00
2023-05-19T23:54:22.405Z,3.67
2023-05-19T23:56:50.432Z,4.70
2023-05-19T23:59:17.605Z,3.73
